Time;durP1;ratioP1;P1;durP2;ratioP2;P2;SDS_P1;SDS_P2;PMS_P1;PMS_P2;Temp;Humidity;BMP_temperature;BMP_pressure;BME280_temperature;BME280_humidity;BME280_pressure;Samples;Min_cycle;Max_cycle;Signal;HPM_P1;HPM_P2
2021/04/05 00:00:33;;;;;;;5.83;4.20;;;;;;;15.73;67.31;99422.08;1752480;80;21218;-65
2021/04/05 00:03:01;;;;;;;4.80;3.65;;;;;;;15.71;67.39;99422.78;1740206;81;21191;-64
2021/04/05 00:05:31;;;;;;;6.12;4.17;;;;;;;15.67;67.42;99421.03;1747118;80;21194;-65
2021/04/05 00:07:58;;;;;;;4.72;4.17;;;;;;;15.69;67.48;99424.84;1729907;80;21128;-65
2021/04/05 00:10:31;;;;;;;5.83;4.47;;;;;;;15.79;67.18;99422.58;1748791;81;21385;-65
2021/04/05 00:13:04;;;;;;;4.75;4.22;;;;;;;15.76;67.19;99421.67;1711883;82;21225;-65
2021/04/05 00:15:31;;;;;;;5.37;4.50;;;;;;;15.71;67.20;99417.42;1746670;80;21179;-66
2021/04/05 00:17:59;;;;;;;5.72;4.30;;;;;;;15.68;67.30;99421.35;1741465;80;21395;-67
2021/04/05 00:20:36;;;;;;;4.80;3.77;;;;;;;15.65;67.46;99420.94;1749698;80;21115;-64
2021/04/05 00:23:04;;;;;;;4.75;4.05;;;;;;;15.63;67.50;99417.66;1748369;80;22271;-65
2021/04/05 00:25:34;;;;;;;5.42;4.25;;;;;;;15.65;67.45;99411.58;1734116;82;21167;-65
2021/04/05 00:28:02;;;;;;;4.33;3.92;;;;;;;15.72;67.32;99407.00;1732498;82;22584;-66
2021/04/05 00:30:35;;;;;;;5.70;4.12;;;;;;;15.68;67.27;99403.10;1754223;80;21169;-65
2021/04/05 00:33:05;;;;;;;;;;;;;;;15.63;67.36;99398.39;1725732;82;21170;-65
2021/04/05 00:35:35;;;;;;;4.50;3.80;;;;;;;15.59;67.48;99404.34;1745675;80;21365;-66
2021/04/05 00:38:09;;;;;;;5.22;4.55;;;;;;;15.49;67.66;99406.12;1741173;81;21222;-65
2021/04/05 00:40:42;;;;;;;;;;;;;;;15.45;67.79;99398.20;1760286;80;21127;-65
2021/04/05 00:43:11;;;;;;;;;;;;;;;15.51;67.73;99388.84;1747446;80;20283;-65
2021/04/05 00:45:38;;;;;;;4.30;3.90;;;;;;;15.52;67.65;99397.69;1724015;83;20296;-66
2021/04/05 00:48:10;;;;;;;4.35;3.80;;;;;;;15.42;67.89;99394.62;1739276;80;22249;-65
2021/04/05 00:50:55;;;;;;;4.67;3.92;;;;;;;15.39;67.99;99395.84;1739254;81;21163;-66
2021/04/05 00:53:26;;;;;;;4.70;4.17;;;;;;;15.36;68.09;99388.77;1741112;81;21194;-65
2021/04/05 00:55:53;;;;;;;4.67;3.65;;;;;;;15.33;68.11;99394.00;1728704;82;21191;-65
2021/04/05 00:58:21;;;;;;;4.37;3.62;;;;;;;15.32;68.21;99389.69;1730139;82;21231;-66
2021/04/05 01:00:53;;;;;;;5.12;3.95;;;;;;;15.36;68.10;99389.58;1739367;81;21202;-65
2021/04/05 01:03:24;;;;;;;5.17;4.03;;;;;;;15.43;67.92;99388.22;1738732;81;21225;-66
2021/04/05 01:05:57;;;;;;;5.62;3.65;;;;;;;15.40;67.93;99385.98;1740538;81;21595;-66
2021/04/05 01:08:24;;;;;;;5.30;4.00;;;;;;;15.37;67.93;99382.36;1756271;80;21181;-66
2021/04/05 01:10:55;;;;;;;4.37;3.98;;;;;;;15.34;67.94;99383.09;1722053;83;21209;-65
2021/04/05 01:13:23;;;;;;;4.20;3.40;;;;;;;15.32;67.97;99387.83;1723192;82;21397;-65
2021/04/05 01:15:50;;;;;;;4.83;3.80;;;;;;;15.31;68.11;99386.17;1754103;80;21174;-64
2021/04/05 01:18:17;;;;;;;5.10;4.20;;;;;;;15.37;68.02;99383.18;1754621;80;21790;-66
2021/04/05 01:20:45;;;;;;;4.95;4.00;;;;;;;15.41;67.84;99379.05;1757551;80;21652;-64
2021/04/05 01:23:17;;;;;;;4.65;3.67;;;;;;;15.39;67.86;99381.12;1755269;80;21155;-65
2021/04/05 01:25:46;;;;;;;4.28;3.58;;;;;;;15.36;67.93;99381.55;1765062;80;21215;-64
2021/04/05 01:28:15;;;;;;;4.58;4.00;;;;;;;15.33;67.93;99380.61;1735109;81;21214;-65
2021/04/05 01:30:50;;;;;;;5.03;3.40;;;;;;;15.30;67.96;99377.03;1757138;81;21139;-65
2021/04/05 01:33:33;;;;;;;4.55;3.65;;;;;;;15.20;68.03;99369.43;1764657;81;21611;-65
2021/04/05 01:36:10;;;;;;;5.10;4.03;;;;;;;15.30;68.01;99375.70;1766776;81;21203;-65
2021/04/05 01:38:47;;;;;;;4.35;3.83;;;;;;;15.34;67.80;99370.23;1766245;81;21437;-66
2021/04/05 01:41:29;;;;;;;4.55;3.62;;;;;;;15.30;67.82;99367.67;1749842;81;21631;-65
2021/04/05 01:43:57;;;;;;;3.95;3.40;;;;;;;15.27;67.89;99366.73;1757042;81;21714;-65
2021/04/05 01:46:28;;;;;;;4.53;4.03;;;;;;;15.23;67.98;99361.49;1754433;81;21194;-65
2021/04/05 01:49:00;;;;;;;4.75;3.83;;;;;;;15.20;68.04;99360.06;1761852;81;21190;-65
2021/04/05 01:51:28;;;;;;;4.08;3.62;;;;;;;15.20;68.09;99359.22;1760009;81;21393;-64
2021/04/05 01:53:57;;;;;;;6.12;4.50;;;;;;;15.28;67.90;99354.48;1744828;80;21155;-64
2021/04/05 01:56:24;;;;;;;4.85;3.95;;;;;;;15.28;67.80;99357.17;1772413;80;21112;-66
2021/04/05 01:58:55;;;;;;;4.70;4.20;;;;;;;15.26;67.88;99358.38;1771223;79;21206;-64
2021/04/05 02:01:26;;;;;;;4.70;3.77;;;;;;;15.22;67.86;99352.66;1736417;81;21143;-65
2021/04/05 02:03:53;;;;;;;5.05;4.08;;;;;;;15.18;67.92;99353.25;1766420;80;21250;-64
2021/04/05 02:06:26;;;;;;;4.67;3.70;;;;;;;15.14;68.01;99351.02;1766568;80;21208;-65
2021/04/05 02:08:54;;;;;;;4.72;3.72;;;;;;;15.16;68.02;99352.64;1746361;81;21210;-68
2021/04/05 02:11:25;;;;;;;3.95;3.55;;;;;;;15.24;67.82;99347.91;1747437;81;21615;-66
2021/04/05 02:13:56;;;;;;;5.28;3.80;;;;;;;15.23;67.81;99346.25;1731475;81;21596;-66
2021/04/05 02:16:26;;;;;;;5.28;3.92;;;;;;;15.19;67.83;99345.55;1768376;80;21212;-64
2021/04/05 02:18:57;;;;;;;4.55;3.75;;;;;;;15.16;67.94;99347.29;1773923;80;21170;-65
2021/04/05 02:21:27;;;;;;;3.77;3.33;;;;;;;15.12;67.98;99349.06;1754983;80;21134;-65
2021/04/05 02:24:01;;;;;;;5.40;4.05;;;;;;;15.10;67.99;99348.94;1745457;81;21586;-65
2021/04/05 02:26:30;;;;;;;4.47;3.67;;;;;;;15.14;67.96;99352.84;1767826;80;21142;-65
2021/04/05 02:29:00;;;;;;;4.40;3.70;;;;;;;15.22;67.79;99346.45;1773229;80;21467;-65
2021/04/05 02:31:30;;;;;;;4.75;3.87;;;;;;;15.18;67.75;99352.73;1762266;80;21229;-66
2021/04/05 02:34:00;;;;;;;4.15;3.62;;;;;;;15.13;67.82;99351.21;1754549;81;21196;-65
2021/04/05 02:36:31;;;;;;;5.42;4.35;;;;;;;15.10;67.88;99351.61;1753380;81;21131;-66
2021/04/05 02:39:05;;;;;;;4.90;4.33;;;;;;;15.07;67.92;99342.69;1759960;80;21147;-66
2021/04/05 02:41:34;;;;;;;4.05;3.65;;;;;;;15.03;67.97;99347.63;1766781;80;23544;-66
2021/04/05 02:44:02;;;;;;;4.92;3.98;;;;;;;15.05;68.01;99340.21;1766900;80;21179;-66
2021/04/05 02:46:33;;;;;;;4.53;3.75;;;;;;;15.12;67.86;99337.02;1778065;80;21105;-66
2021/04/05 02:49:04;;;;;;;4.95;4.10;;;;;;;15.10;67.91;99345.77;1770700;80;21127;-66
2021/04/05 02:51:32;;;;;;;4.42;3.72;;;;;;;15.06;67.94;99341.02;1753296;80;21178;-65
2021/04/05 02:54:00;;;;;;;4.50;4.10;;;;;;;15.02;67.90;99336.59;1783078;80;22750;-65
2021/04/05 02:56:31;;;;;;;6.35;4.35;;;;;;;15.00;68.02;99344.01;1763765;80;21532;-66
2021/04/05 02:59:00;;;;;;;4.42;3.75;;;;;;;14.97;68.10;99340.92;1752743;81;21163;-66
2021/04/05 03:01:29;;;;;;;5.97;3.90;;;;;;;14.99;68.06;99338.37;1761473;80;21182;-66
2021/04/05 03:03:57;;;;;;;5.35;4.12;;;;;;;15.05;67.84;99342.88;1761569;81;21196;-66
2021/04/05 03:06:27;;;;;;;4.35;3.95;;;;;;;15.03;67.85;99338.78;1756235;81;21163;-66
2021/04/05 03:08:58;;;;;;;4.28;3.87;;;;;;;14.99;67.95;99339.70;1760805;80;21143;-65
2021/04/05 03:11:27;;;;;;;4.40;4.00;;;;;;;14.95;67.93;99333.13;1751904;80;21186;-66
2021/04/05 03:13:56;;;;;;;4.45;3.67;;;;;;;14.92;68.03;99326.84;1764988;80;21112;-66
2021/04/05 03:16:26;;;;;;;4.58;3.72;;;;;;;14.88;68.10;99325.09;1747824;81;21090;-66
2021/04/05 03:18:58;;;;;;;4.58;3.92;;;;;;;14.91;68.08;99325.18;1758901;80;21208;-66
2021/04/05 03:21:29;;;;;;;3.98;3.58;;;;;;;15.00;67.79;99325.28;1761322;81;21587;-65
2021/04/05 03:24:05;;;;;;;3.90;3.50;;;;;;;14.97;67.84;99320.37;1790559;80;21163;-65
2021/04/05 03:26:34;;;;;;;5.87;3.80;;;;;;;14.92;67.86;99323.64;1774111;80;21219;-65
2021/04/05 03:29:02;;;;;;;4.78;4.00;;;;;;;14.88;67.91;99320.27;1750403;80;21187;-65
2021/04/05 03:31:31;;;;;;;5.95;3.98;;;;;;;14.86;68.02;99323.66;1758615;81;21463;-66
2021/04/05 03:34:24;;;;;;;4.08;3.67;;;;;;;14.83;68.08;99323.53;1765076;80;21203;-65
2021/04/05 03:37:08;;;;;;;5.40;4.33;;;;;;;14.86;68.06;99322.32;1759548;80;21101;-65
2021/04/05 03:39:37;;;;;;;6.50;4.17;;;;;;;14.92;67.80;99322.83;1732273;81;21167;-66
2021/04/05 03:42:32;;;;;;;5.28;4.45;;;;;;;14.87;67.91;99318.11;1731670;81;21177;-65
2021/04/05 03:45:30;;;;;;;5.20;4.33;;;;;;;14.87;67.99;99312.77;1795000;78;28329;-65
2021/04/05 03:48:17;;;;;;;5.05;4.35;;;;;;;14.79;68.05;99310.27;1780901;80;21159;-66
2021/04/05 03:51:15;;;;;;;4.97;4.45;;;;;;;14.74;68.08;99314.91;1764090;80;21387;-65
2021/04/05 03:54:06;;;;;;;4.67;3.98;;;;;;;14.71;68.13;99317.17;1755900;80;21068;-64
2021/04/05 03:56:43;;;;;;;7.05;5.37;;;;;;;14.76;68.14;99309.37;1780703;79;21133;-66
2021/04/05 03:59:13;;;;;;;5.70;4.33;;;;;;;14.78;68.08;99311.84;1738082;80;21545;-66
2021/04/05 04:01:47;;;;;;;6.47;4.72;;;;;;;14.74;68.05;99314.09;1711319;80;21124;-67
2021/04/05 04:05:01;;;;;;;4.75;4.25;;;;;;;14.71;68.20;99309.97;1769426;80;21219;-65
2021/04/05 04:06:56;;;;;;;;;;;;;;;14.70;68.16;99312.34;1735346;80;21566;-66
2021/04/05 04:09:20;;;;;;;6.25;4.12;;;;;;;14.68;68.32;99310.88;1786150;79;20240;-65
2021/04/05 04:11:50;;;;;;;4.87;4.37;;;;;;;14.60;68.58;99315.92;1800821;79;21154;-65
2021/04/05 04:14:23;;;;;;;5.42;4.03;;;;;;;14.68;68.38;99312.22;1790934;79;21127;-66
2021/04/05 04:16:50;;;;;;;5.30;4.47;;;;;;;14.69;68.27;99310.69;1796792;79;21321;-65
2021/04/05 04:19:18;;;;;;;4.85;4.17;;;;;;;14.67;68.25;99306.06;1795082;79;21588;-66
2021/04/05 04:21:47;;;;;;;5.47;4.28;;;;;;;14.66;68.35;99305.77;1779092;80;21533;-66
2021/04/05 04:24:15;;;;;;;5.65;4.60;;;;;;;14.66;68.43;99306.26;1800748;79;21148;-65
2021/04/05 04:26:42;;;;;;;4.28;3.85;;;;;;;14.64;68.43;99310.50;1749185;80;21172;-66
2021/04/05 04:29:19;;;;;;;4.60;4.12;;;;;;;14.66;68.32;99309.78;1774427;79;21466;-66
2021/04/05 04:31:46;;;;;;;5.47;4.62;;;;;;;14.76;68.13;99304.02;1787056;79;21118;-65
2021/04/05 04:34:16;;;;;;;5.35;4.83;;;;;;;14.75;68.03;99299.16;1786447;79;21617;-67
2021/04/05 04:36:44;;;;;;;4.97;4.40;;;;;;;14.73;68.11;99295.88;1765407;80;21151;-66
2021/04/05 04:39:14;;;;;;;4.60;4.20;;;;;;;14.72;68.08;99291.58;1791496;79;21150;-66
2021/04/05 04:41:46;;;;;;;5.25;4.45;;;;;;;14.72;68.14;99290.76;1766507;79;21859;-65
2021/04/05 04:44:14;;;;;;;5.17;4.62;;;;;;;14.71;68.08;99291.77;1749579;80;21184;-66
2021/04/05 04:46:42;;;;;;;4.60;4.12;;;;;;;14.71;68.06;99286.42;1753848;81;21177;-67
2021/04/05 04:49:11;;;;;;;5.20;4.22;;;;;;;14.80;68.00;99279.03;1732283;81;21245;-66
2021/04/05 04:51:39;;;;;;;6.55;4.58;;;;;;;14.82;67.88;99278.31;1737532;80;21188;-67
2021/04/05 04:54:09;;;;;;;5.12;4.40;;;;;;;14.80;67.90;99281.70;1748652;81;21362;-64
2021/04/05 04:56:37;;;;;;;5.40;4.55;;;;;;;14.75;67.99;99277.77;1741796;81;21172;-66
2021/04/05 04:59:08;;;;;;;5.17;4.22;;;;;;;14.75;68.01;99273.77;1750429;81;22132;-65
2021/04/05 05:01:44;;;;;;;4.78;4.00;;;;;;;14.74;68.15;99271.31;1729002;81;21589;-67
2021/04/05 05:04:24;;;;;;;4.47;3.87;;;;;;;14.74;68.00;99278.00;1757116;81;21182;-68
2021/04/05 05:06:54;;;;;;;4.22;3.83;;;;;;;14.83;67.87;99266.05;1740753;81;21384;-67
2021/04/05 05:09:22;;;;;;;4.78;3.85;;;;;;;14.86;67.71;99269.66;1754537;81;21571;-67
2021/04/05 05:11:50;;;;;;;4.05;3.52;;;;;;;14.84;67.64;99269.04;1736193;81;21625;-66
2021/04/05 05:14:17;;;;;;;5.50;3.72;;;;;;;14.79;67.56;99264.81;1734228;81;21404;-66
2021/04/05 05:16:44;;;;;;;4.92;4.22;;;;;;;14.83;67.53;99273.25;1752872;81;21139;-66
2021/04/05 05:19:13;;;;;;;5.15;4.55;;;;;;;14.83;67.52;99272.73;1743176;81;21409;-66
2021/04/05 05:21:52;;;;;;;5.12;3.98;;;;;;;14.85;67.55;99269.85;1751677;81;21162;-67
2021/04/05 05:24:24;;;;;;;4.60;4.05;;;;;;;14.92;67.50;99268.00;1723990;81;21194;-67
2021/04/05 05:26:52;;;;;;;4.80;4.30;;;;;;;15.04;67.18;99264.17;1732615;81;21213;-67
2021/04/05 05:29:21;;;;;;;4.55;4.08;;;;;;;15.05;67.31;99262.63;1729075;81;21162;-65
2021/04/05 05:31:49;;;;;;;5.17;3.90;;;;;;;15.04;67.54;99260.97;1683690;84;21450;-67
2021/04/05 05:34:20;;;;;;;5.10;4.15;;;;;;;15.04;67.74;99253.47;1723192;81;21174;-66
2021/04/05 05:36:49;;;;;;;4.92;4.22;;;;;;;15.04;67.82;99252.14;1718454;81;21166;-67
2021/04/05 05:39:18;;;;;;;4.05;3.67;;;;;;;15.03;67.92;99248.65;1714251;81;21217;-66
2021/04/05 05:42:09;;;;;;;4.28;3.87;;;;;;;15.11;67.77;99256.44;1719393;81;21213;-67
2021/04/05 05:45:04;;;;;;;4.40;3.75;;;;;;;15.18;67.60;99255.07;1736517;81;21208;-67
2021/04/05 05:47:54;;;;;;;4.62;4.10;;;;;;;15.14;67.61;99249.34;1730626;81;21212;-68
2021/04/05 05:50:32;;;;;;;4.62;4.03;;;;;;;15.11;67.87;99247.08;1739491;81;21248;-67
2021/04/05 05:53:16;;;;;;;3.83;3.42;;;;;;;15.09;68.07;99245.66;1736839;80;21252;-68
2021/04/05 05:56:28;;;;;;;3.98;3.17;;;;;;;15.08;68.35;99242.66;1730410;80;21592;-68
2021/04/05 05:59:37;;;;;;;4.33;3.65;;;;;;;15.14;68.52;99239.14;1770767;80;22171;-69
2021/04/05 06:02:31;;;;;;;5.00;4.12;;;;;;;15.21;68.68;99239.13;1749191;81;21137;-67
2021/04/05 06:05:26;;;;;;;4.37;3.70;;;;;;;15.17;69.11;99239.25;1778900;80;21172;-67
2021/04/05 06:08:24;;;;;;;4.95;4.03;;;;;;;15.15;69.46;99234.11;1747113;81;21220;-67
2021/04/05 06:11:17;;;;;;;5.10;4.12;;;;;;;15.14;69.70;99233.79;1743270;81;21172;-68
2021/04/05 06:14:05;;;;;;;4.35;3.90;;;;;;;15.21;69.75;99223.08;1764533;80;21396;-68
2021/04/05 06:16:38;;;;;;;4.95;4.35;;;;;;;15.29;69.72;99225.52;1756894;80;21091;-67
2021/04/05 06:19:24;;;;;;;;;;;;;;;15.27;69.87;99220.89;1779964;79;21154;-67
2021/04/05 06:22:44;;;;;;;11.30;9.05;;;;;;;15.26;69.34;99217.90;1776032;79;20243;-67
2021/04/05 06:25:44;;;;;;;16.55;9.85;;;;;;;15.18;67.19;99217.61;1762981;80;21076;-69
2021/04/05 06:28:29;;;;;;;14.25;10.48;;;;;;;15.13;64.79;99218.26;1757304;80;21211;-67
2021/04/05 06:31:22;;;;;;;13.78;9.48;;;;;;;15.06;63.18;99221.46;1773617;80;21200;-68
2021/04/05 06:33:51;;;;;;;13.50;9.30;;;;;;;15.01;62.01;99222.63;1678433;81;21189;-67
2021/04/05 06:36:41;;;;;;;12.23;8.40;;;;;;;14.94;60.97;99227.97;1725810;81;21153;-69
2021/04/05 06:39:22;;;;;;;12.60;8.55;;;;;;;14.89;60.42;99226.45;1766328;80;21160;-69
2021/04/05 06:42:17;;;;;;;12.68;8.93;;;;;;;14.84;60.01;99225.44;1736790;81;21213;-69
2021/04/05 06:45:18;;;;;;;13.62;8.90;;;;;;;14.79;59.87;99222.55;1737071;81;21208;-69
2021/04/05 06:48:07;;;;;;;10.10;7.92;;;;;;;14.72;59.88;99222.05;1749922;80;21192;-69
2021/04/05 06:50:45;;;;;;;12.03;9.03;;;;;;;14.67;59.50;99226.38;1747409;81;21591;-69
2021/04/05 06:53:47;;;;;;;10.68;8.30;;;;;;;14.63;59.47;99218.47;1750252;80;21162;-68
2021/04/05 06:57:05;;;;;;;11.90;7.90;;;;;;;14.59;59.47;99223.41;1745527;81;21383;-69
2021/04/05 06:59:48;;;;;;;11.45;8.50;;;;;;;14.55;59.21;99222.14;1746819;81;21194;-71
2021/04/05 07:02:39;;;;;;;8.80;7.15;;;;;;;14.49;59.11;99226.98;1724151;81;21245;-71
2021/04/05 07:06:00;;;;;;;9.48;7.65;;;;;;;14.47;59.01;99222.36;1725276;81;21204;-71
2021/04/05 07:08:57;;;;;;;14.30;7.75;;;;;;;14.43;59.04;99223.28;1747612;81;21103;-71
2021/04/05 07:11:38;;;;;;;9.35;7.97;;;;;;;14.39;58.92;99221.21;1644768;85;21419;-68
2021/04/05 07:14:49;;;;;;;9.00;7.15;;;;;;;14.36;58.57;99213.10;1739511;82;21123;-68
2021/04/05 07:17:34;;;;;;;9.95;8.05;;;;;;;14.33;58.13;99215.68;1747966;81;21177;-73
2021/04/05 07:20:30;;;;;;;9.85;7.45;;;;;;;14.32;58.39;99216.69;1731685;81;21409;-70
2021/04/05 07:23:53;;;;;;;7.78;5.83;;;;;;;14.31;58.17;99211.06;1752078;80;21158;-69
2021/04/05 07:26:38;;;;;;;9.13;6.53;;;;;;;14.29;58.36;99205.59;1744166;81;21198;-70
2021/04/05 07:29:36;;;;;;;7.78;6.55;;;;;;;14.27;58.58;99202.30;1733724;80;21169;-69
2021/04/05 07:32:24;;;;;;;9.30;6.40;;;;;;;14.25;58.58;99195.83;1749032;81;21206;-70
2021/04/05 07:35:02;;;;;;;9.05;6.37;;;;;;;14.26;58.67;99194.00;1724571;82;21189;-70
2021/04/05 07:37:53;;;;;;;7.75;5.97;;;;;;;14.27;58.83;99191.09;1731964;82;21212;-69
2021/04/05 07:40:44;;;;;;;6.78;5.30;;;;;;;14.29;59.00;99199.75;1723042;81;21397;-69
2021/04/05 07:43:53;;;;;;;8.10;4.67;;;;;;;14.30;58.59;99193.89;1722700;82;21209;-67
2021/04/05 07:46:52;;;;;;;5.37;4.70;;;;;;;14.31;58.26;99192.35;1741932;80;21173;-68
2021/04/05 07:49:31;;;;;;;5.37;4.20;;;;;;;14.32;58.06;99187.83;1724612;81;21195;-70
2021/04/05 07:52:09;;;;;;;5.72;3.95;;;;;;;14.31;58.11;99169.64;1734661;81;21125;-69
2021/04/05 07:54:38;;;;;;;5.17;3.60;;;;;;;14.32;58.05;99172.61;1711433;80;21427;-68
2021/04/05 07:57:23;;;;;;;4.33;2.98;;;;;;;14.35;57.87;99171.36;1776514;80;21184;-70
2021/04/05 07:59:58;;;;;;;4.35;2.92;;;;;;;14.35;57.74;99166.86;1766140;79;21175;-69
2021/04/05 08:03:03;;;;;;;3.55;2.85;;;;;;;14.38;57.46;99159.45;1777291;79;21200;-70
2021/04/05 08:05:56;;;;;;;3.92;2.83;;;;;;;14.40;57.49;99160.89;1751752;81;21215;-68
2021/04/05 08:08:53;;;;;;;5.35;2.70;;;;;;;14.41;57.22;99155.86;1760143;80;21423;-71
2021/04/05 08:11:49;;;;;;;3.33;2.58;;;;;;;14.43;57.09;99161.82;1749162;81;21211;-70
2021/04/05 08:14:51;;;;;;;4.78;2.60;;;;;;;14.44;56.96;99150.61;1634709;86;21239;-69
2021/04/05 08:17:33;;;;;;;4.40;2.22;;;;;;;14.45;56.98;99141.05;1743129;80;21190;-72
2021/04/05 08:20:57;;;;;;;3.20;2.70;;;;;;;14.45;56.91;99135.70;1761591;80;21190;-72
2021/04/05 08:23:46;;;;;;;3.90;2.12;;;;;;;14.47;56.57;99132.31;1674994;84;21173;-71
2021/04/05 08:26:49;;;;;;;3.72;2.65;;;;;;;14.49;56.39;99127.58;1766206;79;21167;-71
2021/04/05 08:29:28;;;;;;;3.35;2.50;;;;;;;14.52;56.01;99115.64;1743255;81;21120;-71
2021/04/05 08:32:23;;;;;;;5.25;2.22;;;;;;;14.54;55.97;99118.43;1760413;80;21148;-72
2021/04/05 08:35:14;;;;;;;3.30;2.75;;;;;;;14.58;55.73;99116.69;1710816;81;21180;-72
2021/04/05 08:38:04;;;;;;;4.08;2.67;;;;;;;14.67;55.84;99115.44;1755338;79;28754;-71
2021/04/05 08:40:45;;;;;;;6.30;3.17;;;;;;;14.64;55.85;99112.68;1726403;80;21245;-71
2021/04/05 08:43:25;;;;;;;3.37;2.77;;;;;;;14.68;56.57;99099.69;1724499;82;21375;-71
2021/04/05 08:46:01;;;;;;;3.10;2.45;;;;;;;14.73;56.76;99095.35;1766311;80;21192;-72
2021/04/05 08:48:31;;;;;;;4.17;2.77;;;;;;;14.78;57.08;99094.73;1743974;80;21592;-70
2021/04/05 08:51:02;;;;;;;6.50;3.50;;;;;;;14.83;57.00;99090.89;1750731;81;21138;-70
2021/04/05 08:53:29;;;;;;;5.47;4.17;;;;;;;14.89;56.43;99081.20;1761255;79;21174;-73
2021/04/05 08:55:58;;;;;;;6.35;3.92;;;;;;;14.96;56.87;99083.88;1751923;81;22282;-72
2021/04/05 08:58:38;;;;;;;4.60;3.10;;;;;;;15.01;57.78;99068.83;1754331;81;21210;-70
2021/04/05 09:01:12;;;;;;;5.50;3.40;;;;;;;15.08;58.38;99070.93;1742716;80;21218;-70
2021/04/05 09:03:40;;;;;;;4.75;3.58;;;;;;;15.18;59.10;99065.11;1752948;81;21183;-72
2021/04/05 09:06:14;;;;;;;6.35;3.17;;;;;;;15.27;58.28;99069.70;1750967;81;21159;-71
2021/04/05 09:08:44;;;;;;;5.95;3.25;;;;;;;15.33;57.99;99060.29;1751111;81;22061;-73
2021/04/05 09:11:13;;;;;;;6.03;3.40;;;;;;;15.42;58.54;99060.87;1739582;82;21632;-70
2021/04/05 09:13:48;;;;;;;6.33;3.52;;;;;;;15.51;58.73;99055.55;1739524;82;21190;-75
2021/04/05 09:17:09;;;;;;;6.28;3.87;;;;;;;15.61;59.12;99045.70;1753014;79;21210;-74
2021/04/05 09:19:57;;;;;;;5.50;3.02;;;;;;;15.70;59.78;99036.38;1751299;81;21142;-70
2021/04/05 09:22:49;;;;;;;5.67;2.72;;;;;;;15.79;59.08;99054.86;1754994;81;21379;-70
2021/04/05 09:25:48;;;;;;;6.22;3.17;;;;;;;15.87;58.60;99036.64;1752400;81;21594;-72
2021/04/05 09:28:33;;;;;;;4.87;2.52;;;;;;;15.97;58.83;99032.66;1747389;81;21210;-71
2021/04/05 09:31:51;;;;;;;5.10;3.55;;;;;;;16.06;59.17;99013.39;1753710;81;21186;-70
2021/04/05 09:35:07;;;;;;;4.25;2.45;;;;;;;16.18;59.08;99012.66;1755795;79;21199;-73
2021/04/05 09:38:08;;;;;;;4.08;2.47;;;;;;;16.28;58.00;99019.16;1731237;81;21368;-70
2021/04/05 09:42:29;;;;;;;4.55;2.55;;;;;;;16.44;55.60;99003.52;1822061;76;28717;-69
2021/04/05 09:45:15;;;;;;;3.83;2.70;;;;;;;16.43;57.58;99008.05;1792705;77;21238;-66
2021/04/05 09:48:00;;;;;;;3.72;3.08;;;;;;;16.48;59.31;99002.03;1797774;78;21395;-68
2021/04/05 09:50:50;;;;;;;6.62;3.12;;;;;;;16.55;60.37;99001.94;1791616;78;21201;-68
2021/04/05 09:53:35;;;;;;;3.65;2.77;;;;;;;16.59;61.11;99001.77;1789964;78;21039;-69
2021/04/05 09:56:06;;;;;;;3.67;2.20;;;;;;;16.70;61.42;98997.81;1802259;79;21162;-70
2021/04/05 09:58:41;;;;;;;4.42;2.83;;;;;;;16.86;61.34;98999.59;1768795;78;21189;-69
2021/04/05 10:01:18;;;;;;;2.95;2.50;;;;;;;16.88;61.49;99003.71;1787110;77;22240;-73
2021/04/05 10:03:46;;;;;;;4.45;2.70;;;;;;;16.93;61.44;98993.63;1799180;79;21174;-71
2021/04/05 10:06:17;;;;;;;3.60;2.30;;;;;;;16.97;61.55;98993.46;1795689;78;21537;-72
2021/04/05 10:08:47;;;;;;;5.25;2.40;;;;;;;16.99;61.55;98991.37;1784728;79;21114;-70
2021/04/05 10:11:14;;;;;;;3.98;2.65;;;;;;;17.04;61.57;98995.54;1773303;79;21158;-69
2021/04/05 10:13:56;;;;;;;4.35;2.50;;;;;;;17.08;61.55;98983.83;1782374;77;21116;-69
2021/04/05 10:16:24;;;;;;;2.90;2.08;;;;;;;17.12;61.60;98981.51;1802935;79;21141;-70
2021/04/05 10:19:03;;;;;;;3.30;2.50;;;;;;;17.15;61.66;98976.48;1781666;79;21162;-68
2021/04/05 10:21:34;;;;;;;3.50;2.55;;;;;;;17.19;61.78;98971.47;1785749;77;21190;-71
2021/04/05 10:24:02;;;;;;;4.28;2.60;;;;;;;17.23;61.85;98970.80;1790464;77;21107;-71
2021/04/05 10:26:31;;;;;;;4.25;2.47;;;;;;;17.28;61.87;98968.22;1782001;79;21290;-71
2021/04/05 10:28:59;;;;;;;3.87;2.52;;;;;;;17.40;61.73;98964.24;1799905;77;21129;-68
2021/04/05 10:31:26;;;;;;;3.52;2.30;;;;;;;17.60;61.49;98961.21;1786464;79;21106;-67
2021/04/05 10:34:03;;;;;;;4.10;2.55;;;;;;;17.67;61.26;98968.64;1738598;79;21581;-70
2021/04/05 10:36:41;;;;;;;3.60;2.60;;;;;;;17.73;61.08;98960.17;1792332;77;21760;-70
2021/04/05 10:39:09;;;;;;;3.35;2.30;;;;;;;17.79;60.90;98952.52;1768464;79;21348;-72
2021/04/05 10:41:40;;;;;;;4.47;2.65;;;;;;;17.85;60.84;98965.04;1747152;79;21612;-74
2021/04/05 10:44:11;;;;;;;3.25;2.62;;;;;;;17.91;60.78;98958.44;1745846;80;21663;-72
2021/04/05 10:46:42;;;;;;;2.83;2.22;;;;;;;17.95;60.69;98952.89;1706675;81;21146;-74
2021/04/05 10:49:16;;;;;;;4.05;2.62;;;;;;;17.98;60.67;98946.52;1736817;79;21168;-73
2021/04/05 10:51:47;;;;;;;4.20;2.62;;;;;;;18.02;60.68;98946.84;1789906;78;21350;-72
2021/04/05 10:54:39;;;;;;;2.95;2.30;;;;;;;18.06;60.62;98931.37;1784973;79;21159;-73
2021/04/05 10:57:12;;;;;;;3.47;2.10;;;;;;;18.13;60.61;98933.10;1795796;78;21178;-73
2021/04/05 10:59:51;;;;;;;2.80;2.10;;;;;;;18.18;60.58;98924.62;1780454;78;21115;-71
2021/04/05 11:02:23;;;;;;;2.83;2.15;;;;;;;18.25;60.44;98913.72;1789571;78;21614;-72
2021/04/05 11:05:05;;;;;;;4.25;2.65;;;;;;;18.30;60.23;98914.37;1789568;79;22561;-70
2021/04/05 11:07:34;;;;;;;2.92;2.27;;;;;;;18.33;60.08;98917.91;1781652;77;21198;-71
2021/04/05 11:10:08;;;;;;;2.87;2.00;;;;;;;18.33;60.05;98907.15;1776993;78;21620;-71
2021/04/05 11:12:41;;;;;;;3.92;2.20;;;;;;;18.33;60.11;98907.15;1777875;79;21158;-73
2021/04/05 11:15:11;;;;;;;3.58;2.37;;;;;;;18.31;60.19;98903.37;1775176;79;21594;-72
2021/04/05 11:17:43;;;;;;;3.90;2.10;;;;;;;18.31;60.28;98909.27;1772519;79;21541;-70
2021/04/05 11:20:13;;;;;;;3.35;2.20;;;;;;;18.31;60.34;98897.16;1773923;79;21150;-68
2021/04/05 11:22:41;;;;;;;4.17;2.02;;;;;;;18.30;60.36;98894.20;1772588;78;21190;-70
2021/04/05 11:25:15;;;;;;;2.30;2.10;;;;;;;18.31;60.41;98902.55;1778491;79;21570;-72
2021/04/05 11:27:53;;;;;;;2.72;2.00;;;;;;;18.33;60.41;98899.08;1767008;79;21111;-72
2021/04/05 11:30:25;;;;;;;3.30;2.05;;;;;;;18.37;60.30;98882.75;1768720;79;22132;-71
2021/04/05 11:32:53;;;;;;;3.22;2.22;;;;;;;18.47;60.17;98878.40;1781176;79;21115;-69
2021/04/05 11:35:22;;;;;;;2.70;2.20;;;;;;;18.54;59.87;98878.23;1770850;79;21110;-68
2021/04/05 11:37:51;;;;;;;3.20;2.40;;;;;;;18.63;59.63;98881.37;1784901;78;21209;-74
2021/04/05 11:40:20;;;;;;;2.65;2.12;;;;;;;18.71;59.62;98868.86;1762053;79;21186;-70
2021/04/05 11:42:49;;;;;;;3.17;2.02;;;;;;;18.77;59.40;98876.49;1779874;77;21202;-73
2021/04/05 11:45:35;;;;;;;2.35;2.05;;;;;;;18.81;59.34;98868.25;1780357;79;21178;-74
2021/04/05 11:48:05;;;;;;;2.65;2.15;;;;;;;18.81;59.35;98871.78;1782057;78;21191;-74
2021/04/05 11:50:32;;;;;;;2.60;2.05;;;;;;;18.79;59.37;98863.08;1780213;78;21202;-73
2021/04/05 11:53:05;;;;;;;3.15;2.20;;;;;;;18.81;59.41;98862.88;1775150;79;21182;-72
2021/04/05 11:55:38;;;;;;;;;;;;;;;19.05;59.07;98850.09;1783754;79;21398;-70
2021/04/05 11:58:12;;;;;;;2.20;1.90;;;;;;;19.40;58.32;98843.61;1787524;79;20284;-71
2021/04/05 12:00:47;;;;;;;2.22;1.98;;;;;;;19.62;57.77;98834.20;1770408;78;21170;-72
2021/04/05 12:06:37;;;;;;;2.30;2.00;;;;;;;20.41;56.03;98828.94;1799415;77;22584;-71
2021/04/05 12:09:27;;;;;;;3.33;2.00;;;;;;;20.64;55.46;98839.98;1778332;77;21154;-71
2021/04/05 12:12:03;;;;;;;2.20;1.90;;;;;;;20.80;55.04;98831.47;1782050;77;22268;-71
2021/04/05 12:14:27;;;;;;;2.00;1.80;;;;;;;20.88;54.77;98838.28;1797132;79;21154;-68
2021/04/05 12:16:57;;;;;;;2.37;1.75;;;;;;;20.96;54.59;98836.48;1797115;79;21618;-73
2021/04/05 12:19:42;;;;;;;2.33;2.12;;;;;;;21.03;54.45;98818.16;1778227;78;21138;-68
2021/04/05 12:22:11;;;;;;;1.95;1.77;;;;;;;21.10;54.36;98828.75;1783945;78;21189;-70
2021/04/05 12:24:50;;;;;;;2.37;1.80;;;;;;;21.15;54.31;98843.63;1806301;78;22321;-69
2021/04/05 12:27:17;;;;;;;2.65;1.82;;;;;;;21.14;54.32;98830.66;1786386;78;21621;-70